createdAt,value
2017-12-02T00:00:39.000Z,0.90
2017-12-02T00:03:06.541Z,1.00
2017-12-02T00:05:34.093Z,1.00
2017-12-02T00:08:01.613Z,1.00
2017-12-02T00:10:29.136Z,1.10
2017-12-02T00:12:56.701Z,1.10
2017-12-02T00:15:25.501Z,1.00
2017-12-02T00:17:53.799Z,1.00
2017-12-02T00:20:21.356Z,1.00
2017-12-02T00:22:48.908Z,0.90
2017-12-02T00:25:16.440Z,0.90
2017-12-02T00:27:43.957Z,1.00
2017-12-02T00:30:11.510Z,1.00
2017-12-02T00:32:39.876Z,1.00
2017-12-02T00:35:07.396Z,1.00
2017-12-02T00:37:34.945Z,1.00
2017-12-02T00:40:02.461Z,1.00
2017-12-02T00:42:29.993Z,1.00
2017-12-02T00:44:58.310Z,1.00
2017-12-02T00:47:25.823Z,1.00
2017-12-02T00:49:54.105Z,0.90
2017-12-02T00:52:22.411Z,0.90
2017-12-02T00:54:49.966Z,0.90
2017-12-02T00:57:18.267Z,0.90
2017-12-02T00:59:45.787Z,1.00
2017-12-02T01:02:13.333Z,1.00
2017-12-02T01:04:41.629Z,0.90
2017-12-02T01:07:09.914Z,1.00
2017-12-02T01:09:37.453Z,0.90
2017-12-02T01:12:05.740Z,1.00
2017-12-02T01:14:34.028Z,0.90
2017-12-02T01:17:01.580Z,0.90
2017-12-02T01:19:29.869Z,0.90
2017-12-02T01:21:57.397Z,0.90
2017-12-02T01:24:24.972Z,0.90
2017-12-02T01:26:52.489Z,1.00
2017-12-02T01:29:20.774Z,0.90
2017-12-02T01:31:48.312Z,0.90
2017-12-02T01:34:15.840Z,0.90
2017-12-02T01:36:43.390Z,0.90
2017-12-02T01:39:11.689Z,0.90
2017-12-02T01:41:39.213Z,0.90
2017-12-02T01:44:06.757Z,0.90
2017-12-02T01:46:34.288Z,0.90
2017-12-02T01:49:01.805Z,0.90
2017-12-02T01:51:29.358Z,0.90
2017-12-02T01:53:57.658Z,0.80
2017-12-02T01:56:25.184Z,0.80
2017-12-02T01:58:52.736Z,0.80
2017-12-02T02:01:20.261Z,0.70
2017-12-02T02:03:47.791Z,0.70
2017-12-02T02:06:15.340Z,0.70
2017-12-02T02:08:43.629Z,0.60
2017-12-02T02:11:11.140Z,0.60
2017-12-02T02:13:38.682Z,0.60
2017-12-02T02:16:06.197Z,0.60
2017-12-02T02:18:34.533Z,0.50
2017-12-02T02:21:02.091Z,0.40
2017-12-02T02:23:29.629Z,0.40
2017-12-02T02:25:57.180Z,0.40
2017-12-02T02:28:24.720Z,0.40
2017-12-02T02:30:53.001Z,0.40
2017-12-02T02:33:20.548Z,0.40
2017-12-02T02:35:48.837Z,0.40
2017-12-02T02:38:16.367Z,0.40
2017-12-02T02:40:43.916Z,0.40
2017-12-02T02:43:11.446Z,0.40
2017-12-02T02:45:38.965Z,0.40
2017-12-02T02:48:06.536Z,0.40
2017-12-02T02:50:34.829Z,0.40
2017-12-02T02:53:02.375Z,0.40
2017-12-02T02:55:30.677Z,0.30
2017-12-02T02:57:58.193Z,0.30
2017-12-02T03:00:25.704Z,0.30
2017-12-02T03:02:53.245Z,0.30
2017-12-02T03:05:20.769Z,0.30
2017-12-02T03:07:48.280Z,0.30
2017-12-02T03:10:15.824Z,0.30
2017-12-02T03:12:43.348Z,0.30
2017-12-02T03:15:10.885Z,0.30
2017-12-02T03:17:38.432Z,0.30
2017-12-02T03:20:06.712Z,0.30
2017-12-02T03:22:34.221Z,0.30
2017-12-02T03:25:02.537Z,0.20
2017-12-02T03:27:30.066Z,0.20
2017-12-02T03:29:57.591Z,0.20
2017-12-02T03:32:25.140Z,0.20
2017-12-02T03:34:52.662Z,0.20
2017-12-02T03:37:20.216Z,0.30
2017-12-02T03:39:47.739Z,0.20
2017-12-02T03:42:15.266Z,0.20
2017-12-02T03:44:42.829Z,0.10
2017-12-02T03:47:10.339Z,0.10
2017-12-02T03:49:37.866Z,0.10
2017-12-02T03:52:05.418Z,0.10
2017-12-02T03:54:32.934Z,0.00
2017-12-02T03:57:00.448Z,0.10
2017-12-02T03:59:27.996Z,0.00
2017-12-02T04:01:55.509Z,0.00
2017-12-02T04:04:23.029Z,0.00
2017-12-02T04:06:50.571Z,-0.10
2017-12-02T04:09:18.089Z,-0.10
2017-12-02T04:11:45.636Z,-0.10
2017-12-02T04:14:13.936Z,-0.20
2017-12-02T04:16:41.456Z,-0.10
2017-12-02T04:19:09.054Z,-0.20
2017-12-02T04:21:36.568Z,-0.20
2017-12-02T04:24:04.113Z,-0.20
2017-12-02T04:26:31.637Z,-0.20
2017-12-02T04:28:59.156Z,-0.20
2017-12-02T04:31:26.708Z,-0.20
2017-12-02T04:33:54.286Z,-0.20
2017-12-02T04:36:21.838Z,-0.20
2017-12-02T04:38:49.449Z,-0.20
2017-12-02T04:41:17.016Z,-0.20
2017-12-02T04:43:44.540Z,-0.30
2017-12-02T04:46:12.821Z,-0.30
2017-12-02T04:48:40.369Z,-0.30
2017-12-02T04:51:08.656Z,-0.30
2017-12-02T04:53:37.513Z,-0.40
2017-12-02T04:56:05.066Z,-0.40
2017-12-02T04:58:32.594Z,-0.40
2017-12-02T05:01:00.104Z,-0.40
2017-12-02T05:03:27.656Z,-0.50
2017-12-02T05:05:55.172Z,-0.50
2017-12-02T05:08:22.697Z,-0.50
2017-12-02T05:10:51.005Z,-0.50
2017-12-02T05:13:18.526Z,-0.50
2017-12-02T05:15:46.828Z,-0.50
2017-12-02T05:18:14.355Z,-0.50
2017-12-02T05:20:41.909Z,-0.50
2017-12-02T05:23:09.437Z,-0.50
2017-12-02T05:25:36.956Z,-0.50
2017-12-02T05:28:04.506Z,-0.60
2017-12-02T05:30:32.796Z,-0.60
2017-12-02T05:33:00.316Z,-0.60
2017-12-02T05:35:27.865Z,-0.60
2017-12-02T05:37:55.385Z,-0.60
2017-12-02T05:40:22.919Z,-0.60
2017-12-02T05:42:50.469Z,-0.60
2017-12-02T05:45:17.985Z,-0.60
2017-12-02T05:47:45.521Z,-0.60
2017-12-02T05:50:13.060Z,-0.60
2017-12-02T05:52:41.345Z,-0.60
2017-12-02T05:55:09.638Z,-0.70
2017-12-02T05:57:37.183Z,-0.70
2017-12-02T06:00:04.717Z,-0.70
2017-12-02T06:02:32.235Z,-0.70
2017-12-02T06:04:59.777Z,-0.80
2017-12-02T06:07:27.307Z,-0.80
2017-12-02T06:09:54.860Z,-0.90
2017-12-02T06:12:22.379Z,-0.90
2017-12-02T06:14:50.490Z,-0.90
2017-12-02T06:17:18.082Z,-0.90
2017-12-02T06:19:45.598Z,-0.90
2017-12-02T06:22:13.108Z,-1.00
2017-12-02T06:24:40.648Z,-1.00
2017-12-02T06:27:08.949Z,-1.10
2017-12-02T06:29:36.481Z,-1.10
2017-12-02T06:32:04.793Z,-1.10
2017-12-02T06:34:32.303Z,-1.10
2017-12-02T06:36:59.820Z,-1.10
2017-12-02T06:39:27.372Z,-1.20
2017-12-02T06:41:54.891Z,-1.20
2017-12-02T06:44:22.414Z,-1.20
2017-12-02T06:46:49.967Z,-1.30
2017-12-02T06:49:17.482Z,-1.30
2017-12-02T06:51:45.016Z,-1.30
2017-12-02T06:54:12.560Z,-1.30
2017-12-02T06:56:40.142Z,-1.40
2017-12-02T06:59:07.768Z,-1.40
2017-12-02T07:01:35.358Z,-1.40
2017-12-02T07:04:02.885Z,-1.50
2017-12-02T07:06:30.432Z,-1.50
2017-12-02T07:08:57.950Z,-1.60
2017-12-02T07:11:25.464Z,-1.50
2017-12-02T07:13:53.026Z,-1.50
2017-12-02T07:16:20.553Z,-1.50
2017-12-02T07:18:48.068Z,-1.50
2017-12-02T07:21:15.613Z,-1.50
2017-12-02T07:23:43.156Z,-1.60
2017-12-02T07:26:10.673Z,-1.60
2017-12-02T07:28:38.230Z,-1.60
2017-12-02T07:31:05.768Z,-1.60
2017-12-02T07:33:33.289Z,-1.60
2017-12-02T07:36:00.849Z,-1.50
2017-12-02T07:38:28.370Z,-1.50
2017-12-02T07:40:56.662Z,-1.40
2017-12-02T07:43:24.977Z,-1.40
2017-12-02T07:45:52.492Z,-1.40
2017-12-02T07:48:20.779Z,-1.30
2017-12-02T07:50:49.091Z,-1.30
2017-12-02T07:53:16.614Z,-1.30
2017-12-02T07:55:44.949Z,-1.20
2017-12-02T07:58:12.500Z,-1.20
2017-12-02T08:00:40.015Z,-1.20
2017-12-02T08:03:07.538Z,-1.10
2017-12-02T08:05:35.093Z,-1.10
2017-12-02T08:08:02.617Z,-1.00
2017-12-02T08:10:30.160Z,-0.90
2017-12-02T08:12:57.702Z,-0.80
2017-12-02T08:15:25.995Z,-0.60
2017-12-02T08:17:54.310Z,-0.50
2017-12-02T08:20:21.836Z,-0.40
2017-12-02T08:22:49.381Z,-0.30
2017-12-02T08:25:17.697Z,-0.10
2017-12-02T08:27:45.248Z,-0.10
2017-12-02T08:30:12.772Z,0.00
2017-12-02T08:32:41.079Z,0.30
2017-12-02T08:35:08.616Z,0.20
2017-12-02T08:37:36.896Z,0.50
2017-12-02T08:40:05.215Z,0.70
2017-12-02T08:42:32.792Z,0.60
2017-12-02T08:45:00.369Z,0.80
2017-12-02T08:47:28.260Z,0.90
2017-12-02T08:49:55.815Z,1.00
2017-12-02T08:52:23.369Z,1.10
2017-12-02T08:54:51.668Z,1.20
2017-12-02T08:57:19.957Z,1.20
2017-12-02T08:59:47.566Z,1.20
2017-12-02T09:02:15.111Z,1.30
2017-12-02T09:04:42.659Z,1.30
2017-12-02T09:07:10.241Z,1.20
2017-12-02T09:09:37.761Z,1.10
2017-12-02T09:12:05.308Z,1.00
2017-12-02T09:14:33.590Z,1.00
2017-12-02T09:17:01.113Z,0.90
2017-12-02T09:19:28.681Z,1.00
2017-12-02T09:21:56.270Z,0.90
2017-12-02T09:24:23.826Z,0.90
2017-12-02T09:26:52.185Z,0.90
2017-12-02T09:29:19.706Z,0.90
2017-12-02T09:31:47.262Z,1.00
2017-12-02T09:34:19.838Z,1.00
2017-12-02T09:36:47.381Z,1.00
2017-12-02T09:39:14.897Z,1.00
2017-12-02T09:41:42.425Z,1.00
2017-12-02T09:44:09.971Z,1.10
2017-12-02T09:46:37.514Z,1.20
2017-12-02T09:49:05.060Z,1.30
2017-12-02T09:51:32.590Z,1.30
2017-12-02T09:54:00.149Z,1.30
2017-12-02T09:56:27.673Z,1.50
2017-12-02T09:58:55.196Z,1.60
2017-12-02T10:01:23.515Z,1.80
2017-12-02T10:03:51.025Z,1.80
2017-12-02T10:06:19.327Z,2.00
2017-12-02T10:08:46.892Z,2.00
2017-12-02T10:11:14.402Z,2.10
2017-12-02T10:13:42.705Z,2.20
2017-12-02T10:16:10.283Z,2.20
2017-12-02T10:18:37.801Z,2.20
2017-12-02T10:21:05.320Z,2.10
2017-12-02T10:23:32.907Z,2.00
2017-12-02T10:26:00.453Z,1.90
2017-12-02T10:28:27.982Z,1.80
2017-12-02T10:30:55.568Z,1.80
2017-12-02T10:33:23.130Z,1.70
2017-12-02T10:35:50.657Z,1.70
2017-12-02T10:38:18.174Z,1.60
2017-12-02T10:40:45.711Z,1.60
2017-12-02T10:43:13.277Z,1.60
2017-12-02T10:45:40.794Z,1.50
2017-12-02T10:48:09.105Z,1.40
2017-12-02T10:50:36.662Z,1.30
2017-12-02T10:53:04.258Z,1.30
2017-12-02T10:55:31.772Z,1.30
2017-12-02T10:57:59.297Z,1.30
2017-12-02T11:00:27.606Z,1.30
2017-12-02T11:02:55.129Z,1.20
2017-12-02T11:05:22.668Z,1.30
2017-12-02T11:07:50.873Z,1.20
2017-12-02T11:10:19.156Z,1.10
2017-12-02T11:12:46.704Z,1.10
2017-12-02T11:15:15.020Z,1.10
2017-12-02T11:17:42.558Z,1.10
2017-12-02T11:20:10.086Z,1.10
2017-12-02T11:22:37.634Z,1.10
2017-12-02T11:25:05.183Z,1.10
2017-12-02T11:27:32.701Z,1.00
2017-12-02T11:30:00.216Z,1.10
2017-12-02T11:32:27.766Z,1.10
2017-12-02T11:34:55.284Z,1.10
2017-12-02T11:37:22.867Z,1.10
2017-12-02T11:39:50.403Z,1.10
2017-12-02T11:42:17.924Z,1.10
2017-12-02T11:44:45.498Z,1.10
2017-12-02T11:47:13.796Z,1.10
2017-12-02T11:49:41.411Z,1.00
2017-12-02T11:52:09.097Z,1.00
2017-12-02T11:54:37.412Z,0.90
2017-12-02T11:57:04.939Z,0.90
2017-12-02T11:59:33.256Z,0.90
2017-12-02T12:02:00.784Z,0.90
2017-12-02T12:04:29.090Z,0.90
2017-12-02T12:06:56.649Z,0.90
2017-12-02T12:09:24.178Z,0.90
2017-12-02T12:11:52.453Z,1.00
2017-12-02T12:14:20.793Z,0.90
2017-12-02T12:16:48.334Z,0.90
2017-12-02T12:19:15.889Z,0.90
2017-12-02T12:21:43.426Z,0.90
2017-12-02T12:24:10.953Z,0.90
2017-12-02T12:26:38.503Z,1.00
2017-12-02T12:29:06.047Z,1.00
2017-12-02T12:31:34.362Z,1.00
2017-12-02T12:34:01.888Z,1.00
2017-12-02T12:36:29.407Z,1.00
2017-12-02T12:38:57.008Z,1.00
2017-12-02T12:41:24.536Z,1.00
2017-12-02T12:43:52.060Z,1.00
2017-12-02T12:46:19.617Z,1.00
2017-12-02T12:48:47.144Z,0.90
2017-12-02T12:51:14.694Z,0.90
2017-12-02T12:53:42.226Z,0.90
2017-12-02T12:56:09.773Z,0.90
2017-12-02T12:58:38.102Z,0.80
2017-12-02T13:01:05.620Z,0.80
2017-12-02T13:03:33.140Z,0.90
2017-12-02T13:06:00.700Z,0.90
2017-12-02T13:08:28.228Z,0.90
2017-12-02T13:10:55.758Z,0.90
2017-12-02T13:13:23.321Z,0.90
2017-12-02T13:15:50.858Z,0.80
2017-12-02T13:18:18.377Z,0.80
2017-12-02T13:20:45.930Z,0.70
2017-12-02T13:23:13.444Z,0.80
2017-12-02T13:25:41.737Z,0.70
2017-12-02T13:28:09.281Z,0.70
2017-12-02T13:30:36.822Z,0.60
2017-12-02T13:33:04.341Z,0.60
2017-12-02T13:35:31.894Z,0.60
2017-12-02T13:37:59.431Z,0.60
2017-12-02T13:40:27.743Z,0.60
2017-12-02T13:42:55.293Z,0.50
2017-12-02T13:45:22.818Z,0.50
2017-12-02T13:47:51.130Z,0.50
2017-12-02T13:50:18.668Z,0.50
2017-12-02T13:52:46.201Z,0.50
2017-12-02T13:55:13.769Z,0.50
2017-12-02T13:57:41.286Z,0.60
2017-12-02T14:00:08.826Z,0.50
2017-12-02T14:02:36.385Z,0.50
2017-12-02T14:05:03.910Z,0.50
2017-12-02T14:07:32.253Z,0.50
2017-12-02T14:09:59.860Z,0.50
2017-12-02T14:12:28.163Z,0.60
2017-12-02T14:14:55.685Z,0.50
2017-12-02T14:17:23.249Z,0.50
2017-12-02T14:19:50.802Z,0.50
2017-12-02T14:22:18.314Z,0.50
2017-12-02T14:24:45.856Z,0.50
2017-12-02T14:27:13.373Z,0.50
2017-12-02T14:29:40.917Z,0.50
2017-12-02T14:32:08.432Z,0.50
2017-12-02T14:34:35.945Z,0.50
2017-12-02T14:37:03.495Z,0.50
2017-12-02T14:39:32.169Z,0.50
2017-12-02T14:42:00.637Z,0.50
2017-12-02T14:44:28.166Z,0.50
2017-12-02T14:46:56.453Z,0.50
2017-12-02T14:49:24.001Z,0.50
2017-12-02T14:51:51.531Z,0.50
2017-12-02T14:54:19.079Z,0.50
2017-12-02T14:56:46.608Z,0.50
2017-12-02T14:59:14.133Z,0.40
2017-12-02T15:01:42.419Z,0.40
2017-12-02T15:04:09.968Z,0.40
2017-12-02T15:06:38.253Z,0.40
2017-12-02T15:09:05.770Z,0.40
2017-12-02T15:11:33.374Z,0.40
2017-12-02T15:14:00.894Z,0.30
2017-12-02T15:16:28.417Z,0.40
2017-12-02T15:19:01.849Z,0.40
2017-12-02T15:21:29.369Z,0.40
2017-12-02T15:23:56.917Z,0.40
2017-12-02T15:26:25.205Z,0.40
2017-12-02T15:28:53.600Z,0.40
2017-12-02T15:31:21.155Z,0.40
2017-12-02T15:33:48.701Z,0.40
2017-12-02T15:36:16.232Z,0.40
2017-12-02T15:38:43.856Z,0.40
2017-12-02T15:41:11.394Z,0.40
2017-12-02T15:43:38.910Z,0.40
2017-12-02T15:46:06.456Z,0.40
2017-12-02T15:48:33.999Z,0.40
2017-12-02T15:51:01.549Z,0.40
2017-12-02T15:53:29.090Z,0.40
2017-12-02T15:55:56.613Z,0.40
2017-12-02T15:58:24.142Z,0.40
2017-12-02T16:00:51.769Z,0.40
2017-12-02T16:03:20.168Z,0.40
2017-12-02T16:05:48.502Z,0.40
2017-12-02T16:08:16.998Z,0.50
2017-12-02T16:10:44.699Z,0.50
2017-12-02T16:13:12.235Z,0.50
2017-12-02T16:15:39.781Z,0.50
2017-12-02T16:18:08.226Z,0.50
2017-12-02T16:20:35.896Z,0.50
2017-12-02T16:23:03.453Z,0.50
2017-12-02T16:25:30.974Z,0.50
2017-12-02T16:27:58.526Z,0.50
2017-12-02T16:30:26.045Z,0.50
2017-12-02T16:32:53.616Z,0.50
2017-12-02T16:35:21.920Z,0.50
2017-12-02T16:37:49.454Z,0.50
2017-12-02T16:40:16.976Z,0.50
2017-12-02T16:42:44.531Z,0.50
2017-12-02T16:45:12.051Z,0.50
2017-12-02T16:47:39.580Z,0.50
2017-12-02T16:50:07.161Z,0.50
2017-12-02T16:52:34.706Z,0.50
2017-12-02T16:55:03.001Z,0.50
2017-12-02T16:57:31.323Z,0.50
2017-12-02T17:00:00.135Z,0.50
2017-12-02T17:02:27.916Z,0.50
2017-12-02T17:04:55.468Z,0.50
2017-12-02T17:07:23.001Z,0.50
2017-12-02T17:09:50.557Z,0.50
2017-12-02T17:12:18.134Z,0.50
2017-12-02T17:14:45.688Z,0.60
2017-12-02T17:17:13.297Z,0.60
2017-12-02T17:19:40.841Z,0.60
2017-12-02T17:22:08.378Z,0.60
2017-12-02T17:24:35.896Z,0.60
2017-12-02T17:27:03.449Z,0.60
2017-12-02T17:29:30.969Z,0.50
2017-12-02T17:31:58.488Z,0.50
2017-12-02T17:34:26.102Z,0.50
2017-12-02T17:36:53.656Z,0.50
2017-12-02T17:39:21.180Z,0.60
2017-12-02T17:41:48.834Z,0.50
2017-12-02T17:44:16.356Z,0.60
2017-12-02T17:46:43.868Z,0.60
2017-12-02T17:49:11.408Z,0.60
2017-12-02T17:51:38.929Z,0.60
2017-12-02T17:54:07.263Z,0.60
2017-12-02T17:56:34.825Z,0.60
2017-12-02T17:59:02.345Z,0.60
2017-12-02T18:01:29.908Z,0.60
2017-12-02T18:03:57.468Z,0.60
2017-12-02T18:06:25.791Z,0.60
2017-12-02T18:08:53.357Z,0.60
2017-12-02T18:11:20.897Z,0.60
2017-12-02T18:13:48.424Z,0.50
2017-12-02T18:16:16.801Z,0.50
2017-12-02T18:18:44.322Z,0.60
2017-12-02T18:21:11.905Z,0.60
2017-12-02T18:23:40.190Z,0.60
2017-12-02T18:26:08.550Z,0.60
2017-12-02T18:28:36.123Z,0.60
2017-12-02T18:31:04.413Z,0.70
2017-12-02T18:33:32.076Z,0.70
2017-12-02T18:35:59.646Z,0.70
2017-12-02T18:38:27.178Z,0.70
2017-12-02T18:40:55.482Z,0.70
2017-12-02T18:43:23.073Z,0.70
2017-12-02T18:45:51.788Z,0.70
2017-12-02T18:48:19.317Z,0.70
2017-12-02T18:50:46.874Z,0.70
2017-12-02T18:53:14.405Z,0.70
2017-12-02T18:55:42.949Z,0.70
2017-12-02T18:58:10.487Z,0.80
2017-12-02T19:00:38.041Z,0.80
2017-12-02T19:03:05.621Z,0.80
2017-12-02T19:05:33.146Z,0.80
2017-12-02T19:08:00.664Z,0.80
2017-12-02T19:10:29.020Z,0.80
2017-12-02T19:12:56.856Z,0.80
2017-12-02T19:15:24.394Z,0.80
2017-12-02T19:17:52.366Z,0.90
2017-12-02T19:20:19.945Z,0.80
2017-12-02T19:22:47.690Z,0.90
2017-12-02T19:25:15.599Z,0.80
2017-12-02T19:27:43.122Z,0.80
2017-12-02T19:30:10.681Z,0.80
2017-12-02T19:32:38.259Z,0.80
2017-12-02T19:35:05.985Z,0.80
2017-12-02T19:37:34.292Z,0.90
2017-12-02T19:40:02.061Z,0.80
2017-12-02T19:42:29.693Z,0.90
2017-12-02T19:44:57.310Z,0.80
2017-12-02T19:47:25.689Z,0.90
2017-12-02T19:49:53.261Z,0.90
2017-12-02T19:52:21.707Z,0.90
2017-12-02T19:54:49.262Z,0.90
2017-12-02T19:57:17.001Z,0.90
2017-12-02T19:59:44.588Z,0.90
2017-12-02T20:02:12.303Z,0.90
2017-12-02T20:04:40.277Z,0.90
2017-12-02T20:07:07.889Z,0.90
2017-12-02T20:09:35.486Z,0.90
2017-12-02T20:12:03.018Z,0.90
2017-12-02T20:14:30.897Z,0.90
2017-12-02T20:16:58.816Z,0.90
2017-12-02T20:19:26.415Z,0.90
2017-12-02T20:21:53.981Z,0.90
2017-12-02T20:24:21.519Z,0.90
2017-12-02T20:26:49.070Z,0.90
2017-12-02T20:29:16.885Z,0.90
2017-12-02T20:31:44.586Z,0.90
2017-12-02T20:34:12.155Z,0.80
2017-12-02T20:36:39.764Z,0.80
2017-12-02T20:39:07.325Z,0.80
2017-12-02T20:41:34.981Z,0.80
2017-12-02T20:44:02.556Z,0.80
2017-12-02T20:46:30.073Z,0.90
2017-12-02T20:48:57.599Z,0.80
2017-12-02T20:51:25.150Z,0.80
2017-12-02T20:53:52.677Z,0.80
2017-12-02T20:56:20.209Z,0.80
2017-12-02T20:58:47.774Z,0.80
2017-12-02T21:01:15.339Z,0.80
2017-12-02T21:03:42.964Z,0.80
2017-12-02T21:06:11.464Z,0.80
2017-12-02T21:08:40.085Z,0.80
2017-12-02T21:11:07.908Z,0.80
2017-12-02T21:13:36.375Z,0.90
2017-12-02T21:16:03.904Z,0.90
2017-12-02T21:18:31.424Z,0.90
2017-12-02T21:20:58.969Z,0.80
2017-12-02T21:23:26.488Z,0.90
2017-12-02T21:25:54.034Z,1.00
2017-12-02T21:28:21.613Z,1.00
2017-12-02T21:30:49.164Z,1.00
2017-12-02T21:33:16.746Z,0.90
2017-12-02T21:35:44.261Z,0.90
2017-12-02T21:38:11.778Z,0.90
2017-12-02T21:40:39.319Z,0.90
2017-12-02T21:43:06.860Z,0.80
2017-12-02T21:45:34.381Z,0.80
2017-12-02T21:48:01.933Z,0.80
2017-12-02T21:50:29.454Z,0.80
2017-12-02T21:52:56.975Z,0.80
2017-12-02T21:55:24.548Z,0.80
2017-12-02T21:57:52.066Z,0.80
2017-12-02T22:00:20.379Z,0.80
2017-12-02T22:02:47.920Z,0.80
2017-12-02T22:05:15.456Z,0.80
2017-12-02T22:07:43.009Z,0.80
2017-12-02T22:10:10.533Z,0.80
2017-12-02T22:12:38.066Z,0.80
2017-12-02T22:15:05.617Z,0.80
2017-12-02T22:17:33.915Z,0.80
2017-12-02T22:20:01.432Z,0.70
2017-12-02T22:22:29.001Z,0.70
2017-12-02T22:24:57.281Z,0.70
2017-12-02T22:27:25.564Z,0.70
2017-12-02T22:29:53.110Z,0.70
2017-12-02T22:32:20.637Z,0.70
2017-12-02T22:34:48.153Z,0.70
2017-12-02T22:37:15.694Z,0.70
2017-12-02T22:39:43.215Z,0.70
2017-12-02T22:42:10.771Z,0.80
2017-12-02T22:44:38.285Z,0.70
2017-12-02T22:47:06.569Z,0.80
2017-12-02T22:49:34.126Z,0.80
2017-12-02T22:52:01.636Z,0.70
2017-12-02T22:54:29.163Z,0.70
2017-12-02T22:56:56.717Z,0.70
2017-12-02T22:59:29.301Z,0.70
2017-12-02T23:02:03.326Z,0.70
2017-12-02T23:04:30.836Z,0.70
2017-12-02T23:06:59.126Z,0.70
2017-12-02T23:09:27.435Z,0.70
2017-12-02T23:11:54.949Z,0.70
2017-12-02T23:14:22.525Z,0.80
2017-12-02T23:16:50.068Z,0.80
2017-12-02T23:19:17.590Z,0.80
2017-12-02T23:21:45.115Z,0.70
2017-12-02T23:24:12.779Z,0.70
2017-12-02T23:26:40.312Z,0.70
2017-12-02T23:29:08.591Z,0.80
2017-12-02T23:31:37.241Z,0.80
2017-12-02T23:34:05.520Z,0.80
2017-12-02T23:36:33.037Z,0.80
2017-12-02T23:39:00.578Z,0.80
2017-12-02T23:41:28.096Z,0.80
2017-12-02T23:43:55.613Z,0.80
2017-12-02T23:46:23.158Z,0.80
2017-12-02T23:48:51.457Z,0.80
2017-12-02T23:51:19.025Z,0.80
2017-12-02T23:53:46.544Z,0.80
2017-12-02T23:56:14.086Z,0.70
2017-12-02T23:58:41.633Z,0.70
